Time;durP1;ratioP1;P1;durP2;ratioP2;P2;SDS_P1;SDS_P2;PMS_P1;PMS_P2;Temp;Humidity;BMP_temperature;BMP_pressure;BME280_temperature;BME280_humidity;BME280_pressure;Samples;Min_cycle;Max_cycle;Signal;HPM_P1;HPM_P2
2021/12/15 00:02:19;;;;;;;24.00;15.37;;;5.70;99.90;;;;;;5013862;28;20454;-72
2021/12/15 00:04:46;;;;;;;24.60;14.53;;;5.70;99.90;;;;;;5013728;28;20482;-72
2021/12/15 00:07:15;;;;;;;28.67;15.37;;;5.70;99.90;;;;;;5013302;28;20546;-73
2021/12/15 00:09:41;;;;;;;25.20;15.10;;;5.70;99.90;;;;;;5012680;28;20493;-72
2021/12/15 00:12:10;;;;;;;26.43;14.97;;;5.60;99.90;;;;;;5013438;28;20462;-72
2021/12/15 00:14:36;;;;;;;31.17;16.10;;;5.70;99.90;;;;;;5013241;28;20477;-72
2021/12/15 00:17:04;;;;;;;31.90;15.77;;;5.60;99.90;;;;;;5013188;28;20451;-73
2021/12/15 00:19:31;;;;;;;33.70;16.00;;;5.60;99.90;;;;;;5013198;28;20490;-72
2021/12/15 00:21:58;;;;;;;36.40;16.33;;;5.60;99.90;;;;;;5013356;28;20451;-72
2021/12/15 00:24:27;;;;;;;34.47;17.93;;;5.60;99.90;;;;;;5012798;28;20996;-73
2021/12/15 00:26:55;;;;;;;35.53;18.40;;;5.70;99.90;;;;;;5012540;28;20938;-72
2021/12/15 00:29:22;;;;;;;38.03;19.50;;;5.70;99.90;;;;;;5037382;22;20454;-70
2021/12/15 00:31:49;;;;;;;37.67;18.30;;;5.60;99.90;;;;;;5018494;28;20492;-68
2021/12/15 00:34:16;;;;;;;41.27;21.50;;;5.60;99.90;;;;;;5031086;28;20948;-68
2021/12/15 00:36:44;;;;;;;52.27;21.93;;;5.60;99.90;;;;;;5031010;28;20820;-68
2021/12/15 00:39:13;;;;;;;48.90;23.33;;;5.60;99.90;;;;;;5022777;28;20481;-68
2021/12/15 00:41:42;;;;;;;56.97;24.43;;;5.50;99.90;;;;;;5009853;28;20946;-68
2021/12/15 00:44:10;;;;;;;59.07;22.97;;;5.50;99.90;;;;;;5011309;28;20814;-68
2021/12/15 00:46:38;;;;;;;58.90;25.77;;;5.50;99.90;;;;;;5011434;28;20458;-68
2021/12/15 00:49:05;;;;;;;61.77;26.37;;;5.50;99.90;;;;;;5004055;28;20479;-68
2021/12/15 00:51:32;;;;;;;65.57;25.20;;;5.50;99.90;;;;;;4991574;28;20483;-68
2021/12/15 00:53:59;;;;;;;61.27;25.33;;;5.50;99.90;;;;;;4993747;28;20521;-68
2021/12/15 00:56:26;;;;;;;60.97;24.40;;;5.50;99.90;;;;;;4992615;28;20521;-68
2021/12/15 00:58:54;;;;;;;65.60;26.90;;;5.50;99.90;;;;;;4991825;28;21050;-68
2021/12/15 01:01:23;;;;;;;66.60;25.20;;;5.50;99.90;;;;;;5006241;28;20471;-68
2021/12/15 01:03:50;;;;;;;63.77;26.33;;;5.50;99.90;;;;;;5010928;28;20552;-68
2021/12/15 01:06:19;;;;;;;60.63;24.80;;;5.50;99.90;;;;;;4998388;28;20486;-68
2021/12/15 01:08:54;;;;;;;61.30;26.70;;;5.50;99.90;;;;;;4991869;28;20458;-68
2021/12/15 01:11:30;;;;;;;59.83;26.27;;;5.50;99.90;;;;;;4991729;28;20474;-68
2021/12/15 01:19:51;;;;;;;66.73;25.97;;;5.50;99.90;;;;;;5014845;28;20481;-68
2021/12/15 01:22:23;;;;;;;65.07;26.33;;;5.50;99.90;;;;;;5014300;28;20454;-68
2021/12/15 01:24:52;;;;;;;57.33;24.37;;;5.50;99.90;;;;;;5011340;28;20447;-68
2021/12/15 01:27:19;;;;;;;63.40;26.37;;;5.50;99.90;;;;;;5014897;28;20512;-68
2021/12/15 01:29:47;;;;;;;71.80;24.87;;;5.50;99.90;;;;;;5014402;28;20612;-68
2021/12/15 01:32:14;;;;;;;65.70;24.27;;;5.50;99.90;;;;;;5014698;28;20466;-68
2021/12/15 01:34:41;;;;;;;78.83;27.60;;;5.50;99.90;;;;;;5014878;28;20995;-68
2021/12/15 01:37:08;;;;;;;60.90;25.50;;;5.50;99.90;;;;;;4996692;28;20959;-68
2021/12/15 01:39:35;;;;;;;59.57;24.07;;;5.50;99.90;;;;;;4998847;28;20492;-68
2021/12/15 01:42:03;;;;;;;61.80;24.63;;;5.60;99.90;;;;;;5004092;28;20513;-68
2021/12/15 01:47:15;;;;;;;66.63;25.40;;;5.60;99.90;;;;;;4994901;28;20586;-68
2021/12/15 01:49:45;;;;;;;65.87;24.80;;;5.50;99.90;;;;;;5008227;28;20470;-68
2021/12/15 01:52:15;;;;;;;60.40;25.60;;;5.50;99.90;;;;;;5009990;28;20443;-68
2021/12/15 01:54:45;;;;;;;66.70;25.60;;;5.50;99.90;;;;;;4995064;28;20451;-68
2021/12/15 01:57:13;;;;;;;63.67;25.83;;;5.40;99.90;;;;;;5009792;28;20955;-68
2021/12/15 01:59:41;;;;;;;67.67;25.67;;;5.40;99.90;;;;;;4994756;28;20552;-68
2021/12/15 02:02:08;;;;;;;56.20;24.77;;;5.40;99.90;;;;;;4994510;28;21295;-68
2021/12/15 02:04:36;;;;;;;62.97;24.47;;;5.40;99.90;;;;;;5010845;28;20450;-68
2021/12/15 02:07:08;;;;;;;59.23;25.60;;;5.40;99.90;;;;;;4996304;28;20458;-68
2021/12/15 02:10:01;;;;;;;60.40;24.37;;;5.40;99.90;;;;;;4994507;28;21015;-68
2021/12/15 02:12:34;;;;;;;62.20;23.87;;;5.40;99.90;;;;;;4994451;28;20458;-68
2021/12/15 02:15:02;;;;;;;65.50;24.53;;;5.50;99.90;;;;;;5010383;28;20953;-68
2021/12/15 02:17:29;;;;;;;60.97;24.27;;;5.40;99.90;;;;;;4999062;28;20454;-68
2021/12/15 02:19:57;;;;;;;57.10;23.77;;;5.50;99.90;;;;;;5013430;28;20482;-68
2021/12/15 02:22:28;;;;;;;63.50;23.60;;;5.50;99.90;;;;;;5013959;28;20450;-68
2021/12/15 02:24:55;;;;;;;52.63;24.10;;;5.40;99.90;;;;;;5009211;28;20455;-68
2021/12/15 02:27:22;;;;;;;67.57;24.13;;;5.40;99.90;;;;;;4994087;28;20455;-68
2021/12/15 02:29:52;;;;;;;55.80;23.90;;;5.40;99.90;;;;;;4994026;28;20479;-68
2021/12/15 02:32:30;;;;;;;56.10;22.33;;;5.30;99.90;;;;;;5005992;28;20572;-68
2021/12/15 02:37:05;;;;;;;49.40;21.57;;;5.40;99.90;;;;;;4994640;28;20455;-68
2021/12/15 02:37:46;;;;;;;51.43;23.83;;;5.40;99.90;;;;;;4994095;28;20473;-68
2021/12/15 02:40:18;;;;;;;47.70;22.40;;;5.40;99.90;;;;;;4996618;28;20510;-68
2021/12/15 02:42:47;;;;;;;62.80;23.87;;;5.40;99.90;;;;;;5013631;28;20453;-68
2021/12/15 02:45:16;;;;;;;50.13;22.93;;;5.40;99.90;;;;;;5007825;28;20863;-68
2021/12/15 02:47:44;;;;;;;55.73;23.60;;;5.40;99.90;;;;;;4994005;28;20483;-68
2021/12/15 02:50:14;;;;;;;61.17;24.53;;;5.40;99.90;;;;;;5005159;28;20474;-68
2021/12/15 02:52:41;;;;;;;55.43;24.10;;;5.40;99.90;;;;;;4993034;28;20459;-68
2021/12/15 02:55:12;;;;;;;61.43;24.87;;;5.40;99.90;;;;;;4995682;28;20447;-68
2021/12/15 02:57:39;;;;;;;73.73;27.47;;;5.40;99.90;;;;;;4998665;28;20518;-68
2021/12/15 03:00:17;;;;;;;68.10;25.77;;;5.40;99.90;;;;;;4994079;28;20979;-68
2021/12/15 03:05:37;;;;;;;75.70;27.00;;;5.40;99.90;;;;;;5004166;28;20438;-68
2021/12/15 03:08:09;;;;;;;72.20;27.23;;;5.40;99.90;;;;;;4993848;28;20482;-68
2021/12/15 03:16:09;;;;;;;70.07;26.63;;;5.40;99.90;;;;;;5000314;28;20462;-68
2021/12/15 03:18:36;;;;;;;73.83;29.00;;;5.40;99.90;;;;;;4993300;28;20454;-68
2021/12/15 03:21:07;;;;;;;72.27;25.60;;;5.40;99.90;;;;;;5001218;28;20490;-68
2021/12/15 03:23:40;;;;;;;74.07;27.57;;;5.40;99.90;;;;;;4996671;28;20823;-68
2021/12/15 03:26:09;;;;;;;73.13;27.00;;;5.40;99.90;;;;;;4996958;28;20463;-68
2021/12/15 03:34:26;;;;;;;81.70;28.13;;;5.40;99.90;;;;;;5012608;28;20469;-68
2021/12/15 03:37:09;;;;;;;67.67;25.13;;;5.40;99.90;;;;;;4996776;28;20836;-68
2021/12/15 03:39:41;;;;;;;69.77;25.93;;;5.40;99.90;;;;;;4992337;28;20486;-68
2021/12/15 03:42:10;;;;;;;61.93;25.57;;;5.40;99.90;;;;;;4992738;28;20467;-68
2021/12/15 03:44:40;;;;;;;57.17;24.60;;;5.40;99.90;;;;;;4992783;28;20459;-68
2021/12/15 03:47:09;;;;;;;57.80;24.23;;;5.40;99.90;;;;;;4992382;28;20501;-68
2021/12/15 03:49:36;;;;;;;64.47;23.90;;;5.40;99.90;;;;;;4992725;28;20471;-68
2021/12/15 03:52:04;;;;;;;70.47;24.80;;;5.40;99.90;;;;;;4993057;28;20459;-68
2021/12/15 03:54:31;;;;;;;63.30;23.97;;;5.40;99.90;;;;;;4992887;28;20466;-68
2021/12/15 03:56:58;;;;;;;54.37;24.60;;;5.40;99.90;;;;;;4992652;28;20459;-68
2021/12/15 03:59:28;;;;;;;60.63;25.10;;;5.40;99.90;;;;;;4992982;28;20454;-68
2021/12/15 04:01:55;;;;;;;79.33;31.57;;;5.40;99.90;;;;;;4993033;28;20817;-68
2021/12/15 04:04:22;;;;;;;62.50;26.50;;;5.30;99.90;;;;;;4992035;28;20502;-68
2021/12/15 04:06:48;;;;;;;85.77;28.83;;;5.40;99.90;;;;;;4991941;28;20505;-68
2021/12/15 04:09:16;;;;;;;92.33;30.13;;;5.40;99.90;;;;;;4992326;28;20513;-68
2021/12/15 04:11:44;;;;;;;82.57;29.63;;;5.40;99.90;;;;;;4992327;28;20494;-68
2021/12/15 04:14:19;;;;;;;83.07;27.03;;;5.40;99.90;;;;;;4992350;28;20458;-68
2021/12/15 04:16:59;;;;;;;90.80;28.13;;;5.40;99.90;;;;;;4991910;28;20525;-68
2021/12/15 04:19:28;;;;;;;101.57;30.87;;;5.30;99.90;;;;;;4991777;28;20970;-68
2021/12/15 04:21:55;;;;;;;107.03;28.73;;;5.40;99.90;;;;;;4992088;28;20447;-68
2021/12/15 04:24:23;;;;;;;218.70;34.57;;;5.30;99.90;;;;;;4991879;28;20459;-68
2021/12/15 04:26:51;;;;;;;147.97;31.83;;;5.30;99.90;;;;;;4993306;28;20459;-68
2021/12/15 04:29:18;;;;;;;193.77;32.37;;;5.30;99.90;;;;;;4991974;28;20509;-68
2021/12/15 04:31:50;;;;;;;149.67;30.27;;;5.30;99.90;;;;;;4992240;28;20454;-68
2021/12/15 04:34:17;;;;;;;99.70;30.90;;;5.30;99.90;;;;;;4992128;28;20459;-68
2021/12/15 04:36:47;;;;;;;97.03;31.17;;;5.30;99.90;;;;;;5004953;28;20450;-68
2021/12/15 04:39:17;;;;;;;100.07;30.33;;;5.30;99.90;;;;;;5010996;28;20821;-68
2021/12/15 04:41:48;;;;;;;89.77;27.60;;;5.30;99.90;;;;;;4992720;28;21014;-68
2021/12/15 04:44:16;;;;;;;86.87;28.87;;;5.30;99.90;;;;;;4992084;28;20454;-68
2021/12/15 04:46:47;;;;;;;98.00;30.30;;;5.30;99.90;;;;;;4991631;28;20959;-68
2021/12/15 04:49:19;;;;;;;100.53;28.70;;;5.40;99.90;;;;;;4996545;28;20454;-68
2021/12/15 04:51:47;;;;;;;99.10;30.17;;;5.40;99.90;;;;;;5015059;28;20450;-68
2021/12/15 04:54:14;;;;;;;94.17;28.60;;;5.30;99.90;;;;;;5015577;28;20883;-68
2021/12/15 04:56:41;;;;;;;83.87;31.10;;;5.40;99.90;;;;;;5001917;28;20979;-67
2021/12/15 04:59:08;;;;;;;88.63;31.20;;;5.40;99.90;;;;;;5003905;28;20450;-68
2021/12/15 05:01:35;;;;;;;90.53;31.20;;;5.40;99.90;;;;;;5013275;28;20490;-68
2021/12/15 05:04:01;;;;;;;94.40;32.07;;;5.30;99.90;;;;;;4995676;28;20458;-69
2021/12/15 05:06:30;;;;;;;99.13;29.13;;;5.40;99.90;;;;;;5001040;28;20500;-68
2021/12/15 05:08:57;;;;;;;79.53;28.10;;;5.40;99.90;;;;;;5008069;28;20447;-69
2021/12/15 05:11:24;;;;;;;68.30;27.07;;;5.40;99.90;;;;;;4995885;28;20471;-68
2021/12/15 05:13:50;;;;;;;108.53;30.00;;;5.30;99.90;;;;;;4995862;28;20533;-68
2021/12/15 05:16:17;;;;;;;84.67;27.30;;;5.40;99.90;;;;;;4995536;28;20451;-68
2021/12/15 05:18:44;;;;;;;76.70;27.20;;;5.40;99.90;;;;;;4999600;28;20451;-69
2021/12/15 05:21:11;;;;;;;87.80;28.30;;;5.30;99.90;;;;;;5014474;28;20481;-69
2021/12/15 05:23:44;;;;;;;85.87;27.77;;;5.40;99.90;;;;;;5015244;28;20454;-69
2021/12/15 05:26:11;;;;;;;88.10;28.87;;;5.40;99.90;;;;;;5014092;28;20508;-69
2021/12/15 05:28:38;;;;;;;79.53;28.60;;;5.40;99.90;;;;;;5014308;28;20450;-68
2021/12/15 05:31:05;;;;;;;85.07;28.00;;;5.40;99.90;;;;;;5014771;28;20482;-69
2021/12/15 05:33:32;;;;;;;76.80;28.93;;;5.40;99.90;;;;;;5013846;28;20462;-69
2021/12/15 05:35:58;;;;;;;72.93;26.07;;;5.40;99.90;;;;;;5014157;28;20480;-68
2021/12/15 05:38:26;;;;;;;78.23;27.47;;;5.40;99.90;;;;;;5012604;28;20461;-69
2021/12/15 05:40:56;;;;;;;93.00;28.97;;;5.40;99.90;;;;;;4994353;28;20990;-69
2021/12/15 05:43:23;;;;;;;86.97;29.37;;;5.40;99.90;;;;;;4995136;28;20489;-68
2021/12/15 05:45:51;;;;;;;81.57;28.70;;;5.40;99.90;;;;;;4994935;28;20558;-69
2021/12/15 05:48:19;;;;;;;81.50;28.97;;;5.40;99.90;;;;;;4995683;28;20550;-69
2021/12/15 05:50:48;;;;;;;79.10;28.23;;;5.50;99.90;;;;;;4994748;28;20467;-69
2021/12/15 05:53:15;;;;;;;89.13;29.73;;;5.50;99.90;;;;;;4994916;28;20454;-69
2021/12/15 05:55:43;;;;;;;88.30;30.33;;;5.50;99.90;;;;;;5006626;28;20513;-68
2021/12/15 05:58:11;;;;;;;92.93;30.53;;;5.50;99.90;;;;;;4999977;28;20501;-69
2021/12/15 06:00:41;;;;;;;83.53;28.30;;;5.40;99.90;;;;;;4994538;28;20533;-69
2021/12/15 06:03:08;;;;;;;82.47;28.30;;;5.50;99.90;;;;;;4994793;28;20451;-69
2021/12/15 06:05:36;;;;;;;90.60;30.73;;;5.50;99.90;;;;;;4994232;28;20944;-69
2021/12/15 06:08:04;;;;;;;83.70;29.47;;;5.50;99.90;;;;;;5013654;28;20454;-69
2021/12/15 06:10:31;;;;;;;78.13;30.50;;;5.50;99.90;;;;;;4995978;28;20915;-69
2021/12/15 06:13:00;;;;;;;79.97;30.40;;;5.50;99.90;;;;;;4994328;28;20509;-69
2021/12/15 06:15:29;;;;;;;83.40;30.10;;;5.50;99.90;;;;;;4995457;28;20474;-68
2021/12/15 06:17:59;;;;;;;83.37;30.50;;;5.50;99.90;;;;;;5013893;28;20447;-69
2021/12/15 06:20:26;;;;;;;87.10;31.57;;;5.60;99.90;;;;;;5001460;28;20897;-68
2021/12/15 06:22:55;;;;;;;81.63;29.03;;;5.60;99.90;;;;;;5011237;28;20439;-69
2021/12/15 06:25:22;;;;;;;81.77;30.87;;;5.60;99.90;;;;;;5005430;28;20466;-69
2021/12/15 06:27:49;;;;;;;87.90;31.50;;;5.60;99.90;;;;;;4994152;28;20486;-69
2021/12/15 06:30:16;;;;;;;92.23;28.67;;;5.70;99.90;;;;;;5035594;22;20500;-76
2021/12/15 06:32:44;;;;;;;89.13;29.50;;;5.80;99.90;;;;;;5032668;28;20495;-75
2021/12/15 06:35:11;;;;;;;73.37;28.10;;;5.70;99.90;;;;;;5033335;28;20507;-76
2021/12/15 06:37:38;;;;;;;78.80;27.40;;;5.70;99.90;;;;;;5033227;28;20449;-75
2021/12/15 06:40:08;;;;;;;71.30;27.30;;;5.70;99.90;;;;;;5015250;28;20483;-75
2021/12/15 06:42:35;;;;;;;58.30;25.17;;;5.80;99.90;;;;;;4996949;28;20482;-76
2021/12/15 06:45:02;;;;;;;65.17;25.40;;;5.80;99.90;;;;;;4993969;28;20967;-76
2021/12/15 06:58:28;;;;;;;64.53;27.23;;;5.80;99.90;;;;;;5009215;28;20488;-78
2021/12/15 07:00:57;;;;;;;68.43;25.17;;;5.80;99.90;;;;;;5003795;28;20910;-80
2021/12/15 07:03:25;;;;;;;70.70;27.10;;;5.90;99.90;;;;;;5020165;28;20512;-79
2021/12/15 07:05:55;;;;;;;69.37;26.60;;;5.80;99.90;;;;;;5016493;28;20459;-80
2021/12/15 07:08:23;;;;;;;59.47;25.00;;;5.80;99.90;;;;;;5010541;28;20509;-80
2021/12/15 07:10:52;;;;;;;72.73;27.07;;;5.80;99.90;;;;;;5001656;28;20468;-80
2021/12/15 07:13:20;;;;;;;66.30;26.47;;;5.80;99.90;;;;;;4999585;28;20459;-80
2021/12/15 07:15:47;;;;;;;56.43;25.57;;;5.80;99.90;;;;;;5000024;28;20451;-80
2021/12/15 07:18:26;;;;;;;62.23;26.93;;;5.60;99.90;;;;;;4999920;28;20516;-80
2021/12/15 07:20:55;;;;;;;67.90;27.50;;;5.80;99.90;;;;;;5019249;28;20572;-81
2021/12/15 07:23:23;;;;;;;74.57;27.20;;;5.80;99.90;;;;;;5011865;28;20573;-80
2021/12/15 07:25:52;;;;;;;72.73;28.97;;;5.80;99.90;;;;;;5011406;28;20458;-81
2021/12/15 07:28:21;;;;;;;69.03;26.13;;;5.80;99.90;;;;;;5019719;28;20496;-80
2021/12/15 07:30:49;;;;;;;69.90;26.73;;;5.80;99.90;;;;;;4997804;28;20537;-80
2021/12/15 07:33:15;;;;;;;69.13;25.53;;;5.80;99.90;;;;;;4997349;28;20533;-77
2021/12/15 07:35:43;;;;;;;74.70;26.97;;;5.80;99.90;;;;;;4993908;28;20455;-77
2021/12/15 07:38:11;;;;;;;81.30;27.47;;;5.80;99.90;;;;;;4999421;28;20517;-79
2021/12/15 07:40:40;;;;;;;67.60;25.20;;;5.90;99.90;;;;;;4998272;28;21219;-77
2021/12/15 07:43:11;;;;;;;69.63;27.03;;;5.90;99.90;;;;;;5006524;28;20531;-77
2021/12/15 07:45:42;;;;;;;61.73;26.27;;;5.80;99.90;;;;;;5007028;28;20499;-77
2021/12/15 07:48:11;;;;;;;99.83;37.30;;;5.90;99.90;;;;;;5010751;28;20466;-78
2021/12/15 07:50:40;;;;;;;67.23;27.20;;;5.90;99.90;;;;;;4999209;28;20529;-78
2021/12/15 07:53:07;;;;;;;77.00;28.20;;;5.90;99.90;;;;;;4994478;28;20455;-77
2021/12/15 07:55:36;;;;;;;61.00;25.50;;;5.90;99.90;;;;;;4994328;28;20455;-78
2021/12/15 07:58:04;;;;;;;74.03;28.17;;;5.90;99.90;;;;;;5002209;28;20454;-77
2021/12/15 08:00:31;;;;;;;69.43;26.77;;;5.90;99.90;;;;;;5013781;28;20601;-76
2021/12/15 08:02:58;;;;;;;73.33;28.30;;;5.90;99.90;;;;;;5003140;28;20498;-77
2021/12/15 08:05:26;;;;;;;68.93;27.30;;;5.90;99.90;;;;;;4991255;28;20451;-77
2021/12/15 08:07:53;;;;;;;60.83;26.00;;;5.90;99.90;;;;;;4999409;28;20501;-77
2021/12/15 08:10:20;;;;;;;61.47;27.40;;;5.90;99.90;;;;;;5012875;28;20497;-79
2021/12/15 08:12:49;;;;;;;64.40;24.50;;;5.90;99.90;;;;;;5011854;28;20955;-76
2021/12/15 08:15:17;;;;;;;74.07;28.50;;;6.00;99.90;;;;;;5009586;28;20461;-77
2021/12/15 08:17:48;;;;;;;61.07;25.37;;;6.00;99.90;;;;;;4996625;28;20463;-77
2021/12/15 08:20:15;;;;;;;62.47;26.60;;;6.00;99.90;;;;;;4993286;28;20483;-78
2021/12/15 08:22:43;;;;;;;71.13;26.70;;;5.90;99.90;;;;;;4997679;28;20517;-78
2021/12/15 08:25:13;;;;;;;62.13;25.77;;;6.00;99.90;;;;;;5002715;28;20473;-78
2021/12/15 08:27:40;;;;;;;77.43;27.10;;;6.00;99.90;;;;;;5010177;28;20458;-78
2021/12/15 08:30:13;;;;;;;69.43;28.70;;;5.90;99.90;;;;;;4995410;28;20981;-78
2021/12/15 08:32:41;;;;;;;72.20;29.13;;;5.90;99.90;;;;;;5004940;28;20512;-79
2021/12/15 08:35:09;;;;;;;70.60;28.40;;;5.90;99.90;;;;;;4999669;28;20455;-80
2021/12/15 08:37:35;;;;;;;77.43;29.27;;;5.90;99.90;;;;;;5029158;28;20516;-78
2021/12/15 08:40:03;;;;;;;77.10;29.40;;;5.90;99.90;;;;;;5012871;28;20482;-78
2021/12/15 08:42:30;;;;;;;82.33;28.37;;;5.90;99.90;;;;;;5008553;28;21068;-80
2021/12/15 08:44:57;;;;;;;69.83;28.57;;;5.80;99.90;;;;;;5014801;28;20454;-80
2021/12/15 08:47:25;;;;;;;75.23;28.40;;;5.90;99.90;;;;;;5007359;28;20522;-79
2021/12/15 08:49:53;;;;;;;80.03;28.70;;;5.90;99.90;;;;;;5009749;28;20450;-79
2021/12/15 08:52:20;;;;;;;73.90;30.00;;;5.90;99.90;;;;;;5014832;28;20454;-79
2021/12/15 08:54:47;;;;;;;77.03;29.10;;;5.90;99.90;;;;;;5010001;28;20458;-80
2021/12/15 08:57:14;;;;;;;71.77;29.10;;;5.90;99.90;;;;;;5011834;28;20454;-80
2021/12/15 08:59:41;;;;;;;67.73;27.57;;;6.00;99.90;;;;;;4998166;28;20451;-79
2021/12/15 09:02:08;;;;;;;69.93;27.63;;;6.00;99.90;;;;;;5004969;28;20502;-78
2021/12/15 09:04:36;;;;;;;75.20;29.30;;;6.00;99.90;;;;;;4994584;28;20832;-79
2021/12/15 09:07:03;;;;;;;74.60;29.50;;;6.00;99.90;;;;;;4994610;28;20455;-79
2021/12/15 09:09:29;;;;;;;83.20;28.13;;;6.00;99.90;;;;;;5013110;28;20484;-80
2021/12/15 09:11:56;;;;;;;70.47;28.83;;;6.00;99.90;;;;;;5002913;28;20478;-80
2021/12/15 09:14:23;;;;;;;66.03;28.30;;;6.00;99.90;;;;;;5008629;28;20485;-81
2021/12/15 09:16:53;;;;;;;76.60;27.87;;;6.10;99.90;;;;;;4999476;28;20504;-79
2021/12/15 09:19:20;;;;;;;70.00;31.20;;;6.10;99.90;;;;;;5012918;28;20481;-80
2021/12/15 09:21:51;;;;;;;71.60;30.43;;;6.10;99.90;;;;;;5014626;28;20494;-80
2021/12/15 09:24:18;;;;;;;72.50;31.73;;;6.10;99.90;;;;;;5014432;28;20469;-79
2021/12/15 09:26:45;;;;;;;74.57;30.97;;;6.20;99.90;;;;;;5005860;28;20454;-80
2021/12/15 09:29:12;;;;;;;76.00;33.07;;;6.20;99.90;;;;;;5014480;28;20455;-79
2021/12/15 09:31:40;;;;;;;78.43;31.50;;;6.20;99.90;;;;;;5008511;28;20518;-80
2021/12/15 09:34:08;;;;;;;77.97;31.07;;;6.20;99.90;;;;;;4995361;28;20463;-80
2021/12/15 09:36:35;;;;;;;73.73;32.13;;;6.30;99.90;;;;;;4997013;28;20459;-80
2021/12/15 09:39:08;;;;;;;78.17;32.80;;;6.30;99.90;;;;;;5009720;28;20462;-80
2021/12/15 09:41:35;;;;;;;73.17;33.07;;;6.30;99.90;;;;;;5011630;28;20513;-79
2021/12/15 09:44:07;;;;;;;85.03;34.00;;;6.40;99.90;;;;;;4999364;28;20451;-80
2021/12/15 09:46:41;;;;;;;83.00;34.20;;;6.40;99.90;;;;;;5000401;28;20487;-80
2021/12/15 09:57:45;;;;;;;72.10;33.90;;;6.60;99.90;;;;;;5011666;28;21034;-80
2021/12/15 10:03:02;;;;;;;75.07;31.77;;;6.80;99.90;;;;;;5007568;28;20571;-78
2021/12/15 10:05:43;;;;;;;81.23;30.63;;;6.90;99.90;;;;;;5009696;28;20453;-78
2021/12/15 10:19:23;;;;;;;59.13;28.07;;;7.00;99.90;;;;;;4981627;28;20500;-79
2021/12/15 10:22:09;;;;;;;57.83;27.40;;;7.10;99.90;;;;;;5018141;28;20598;-80
2021/12/15 10:24:45;;;;;;;62.83;27.77;;;7.20;99.90;;;;;;5014374;28;20451;-79
2021/12/15 10:27:16;;;;;;;54.63;27.23;;;7.20;99.90;;;;;;5015894;28;20464;-79
2021/12/15 10:30:24;;;;;;;57.53;26.67;;;7.30;99.90;;;;;;5019391;28;20565;-80
2021/12/15 10:32:55;;;;;;;62.40;27.20;;;7.40;99.90;;;;;;5018335;28;20465;-80
2021/12/15 10:35:27;;;;;;;55.13;26.23;;;7.50;99.90;;;;;;5020238;28;20531;-79
2021/12/15 10:38:21;;;;;;;57.53;27.57;;;7.50;99.90;;;;;;5037971;28;20445;-79
2021/12/15 10:40:52;;;;;;;62.57;27.87;;;7.50;99.90;;;;;;5033092;28;20892;-80
2021/12/15 10:43:23;;;;;;;52.20;25.80;;;7.60;99.90;;;;;;5017304;28;20490;-79
2021/12/15 10:45:52;;;;;;;53.80;27.17;;;7.50;99.90;;;;;;5016959;28;20485;-79
2021/12/15 10:48:34;;;;;;;60.70;25.20;;;7.60;99.90;;;;;;5017955;28;20454;-80
2021/12/15 10:51:02;;;;;;;51.27;25.93;;;7.60;99.90;;;;;;5016996;28;20470;-80
2021/12/15 10:53:35;;;;;;;56.90;23.70;;;7.60;99.90;;;;;;5017438;28;20458;-79
2021/12/15 10:56:10;;;;;;;50.67;23.27;;;7.60;99.90;;;;;;5011257;28;20455;-78
2021/12/15 10:58:42;;;;;;;55.73;24.33;;;7.60;99.90;;;;;;5000806;28;20545;-78
2021/12/15 11:01:44;;;;;;;56.13;24.13;;;7.60;99.90;;;;;;5036769;28;20496;-80
2021/12/15 11:04:31;;;;;;;53.17;23.77;;;7.60;99.90;;;;;;5037528;28;20449;-78
2021/12/15 11:07:17;;;;;;;54.80;24.83;;;7.60;99.90;;;;;;5008815;28;20443;-77
2021/12/15 11:09:46;;;;;;;54.67;25.77;;;7.60;99.90;;;;;;5002653;28;20462;-78
2021/12/15 11:12:17;;;;;;;48.17;23.80;;;7.60;99.90;;;;;;5012742;28;20465;-79
2021/12/15 11:14:48;;;;;;;57.30;25.10;;;7.70;99.90;;;;;;5015788;28;20465;-79
2021/12/15 11:17:17;;;;;;;54.90;24.90;;;7.70;99.90;;;;;;5015321;28;20452;-79
2021/12/15 11:19:49;;;;;;;55.40;25.90;;;7.80;99.90;;;;;;5010680;28;20518;-79
2021/12/15 11:22:52;;;;;;;62.43;25.60;;;7.90;99.90;;;;;;4995824;28;20486;-79
2021/12/15 11:25:24;;;;;;;61.43;25.53;;;8.00;99.90;;;;;;4991355;28;20459;-79
2021/12/15 11:27:53;;;;;;;53.70;25.70;;;8.10;99.90;;;;;;5009617;28;20447;-78
2021/12/15 11:30:29;;;;;;;56.27;25.47;;;8.10;99.90;;;;;;4995624;28;21078;-77
2021/12/15 11:32:57;;;;;;;52.20;24.70;;;8.10;99.90;;;;;;5014902;28;20458;-78
2021/12/15 11:35:27;;;;;;;52.90;25.20;;;8.10;99.90;;;;;;5020212;28;20457;-78
2021/12/15 11:37:58;;;;;;;45.17;22.57;;;8.10;99.90;;;;;;5027781;28;20446;-78
2021/12/15 11:40:29;;;;;;;59.77;24.40;;;8.10;99.90;;;;;;4998425;28;20471;-79
2021/12/15 11:42:56;;;;;;;49.23;25.33;;;8.10;99.90;;;;;;5001397;28;20536;-79
2021/12/15 11:45:25;;;;;;;53.77;22.80;;;8.10;99.90;;;;;;4997836;28;20474;-78
2021/12/15 11:48:27;;;;;;;42.07;20.50;;;8.20;99.90;;;;;;4999735;28;20521;-78
2021/12/15 11:50:58;;;;;;;41.60;19.00;;;8.20;99.90;;;;;;5015876;28;20469;-80
2021/12/15 11:53:40;;;;;;;34.73;17.83;;;8.40;99.90;;;;;;4995756;28;20455;-78
2021/12/15 11:56:26;;;;;;;36.07;18.80;;;8.40;99.90;;;;;;4996424;28;20455;-79
2021/12/15 11:58:58;;;;;;;40.27;19.83;;;8.50;99.90;;;;;;5010120;28;20458;-79
2021/12/15 12:01:51;;;;;;;41.80;21.07;;;8.60;99.90;;;;;;5006510;28;20471;-81
2021/12/15 12:04:32;;;;;;;48.37;23.20;;;8.60;99.90;;;;;;5008019;28;20447;-80
2021/12/15 12:07:14;;;;;;;42.03;22.30;;;8.80;99.90;;;;;;5014015;28;20540;-80
2021/12/15 12:09:44;;;;;;;42.33;22.20;;;9.00;99.90;;;;;;5008364;28;20451;-76
2021/12/15 12:12:11;;;;;;;38.90;21.30;;;9.50;99.90;;;;;;4999551;28;20987;-80
2021/12/15 12:14:42;;;;;;;40.97;20.50;;;10.00;99.90;;;;;;5016961;28;20909;-80
2021/12/15 12:17:13;;;;;;;41.43;20.67;;;10.20;99.90;;;;;;5016099;28;20469;-79
2021/12/15 12:19:50;;;;;;;41.77;20.60;;;10.50;99.90;;;;;;4999352;28;20454;-78
2021/12/15 12:22:20;;;;;;;31.63;18.20;;;10.50;99.90;;;;;;5010028;28;20512;-74
2021/12/15 12:24:50;;;;;;;37.23;20.63;;;10.30;99.90;;;;;;5008877;28;20460;-77
2021/12/15 12:27:17;;;;;;;42.30;19.13;;;10.00;99.90;;;;;;5005085;28;20886;-77
2021/12/15 12:29:45;;;;;;;33.23;18.63;;;9.90;99.90;;;;;;5004021;28;20471;-77
2021/12/15 12:32:13;;;;;;;38.33;18.40;;;9.80;99.90;;;;;;4999225;28;20454;-80
2021/12/15 12:34:41;;;;;;;35.77;18.97;;;9.60;99.90;;;;;;5010897;28;20454;-79
2021/12/15 12:37:11;;;;;;;38.40;19.83;;;9.50;99.90;;;;;;5021855;28;20458;-79
2021/12/15 12:39:39;;;;;;;32.67;16.40;;;9.40;99.90;;;;;;5014690;28;20525;-79
2021/12/15 12:42:07;;;;;;;33.50;18.00;;;9.40;99.90;;;;;;5043361;22;20568;-68
2021/12/15 12:44:37;;;;;;;33.60;17.10;;;9.40;99.90;;;;;;5030096;28;20445;-68
2021/12/15 12:47:10;;;;;;;33.00;17.80;;;9.40;99.90;;;;;;5022270;28;20453;-69
2021/12/15 12:50:12;;;;;;;33.53;17.00;;;9.30;99.90;;;;;;5011332;28;20525;-69
2021/12/15 13:01:20;;;;;;;34.00;18.13;;;8.90;99.90;;;;;;4999605;28;20462;-69
2021/12/15 13:03:51;;;;;;;37.73;19.23;;;8.90;99.90;;;;;;4992554;28;20505;-68
2021/12/15 13:06:21;;;;;;;40.13;20.07;;;8.80;99.90;;;;;;4999519;28;20637;-69
2021/12/15 13:08:50;;;;;;;41.93;20.00;;;8.70;99.90;;;;;;5005916;28;20451;-69
2021/12/15 13:11:33;;;;;;;39.53;19.27;;;8.70;99.90;;;;;;5005060;28;20458;-69
2021/12/15 13:14:04;;;;;;;40.43;19.47;;;8.60;99.90;;;;;;4997567;28;20551;-69
2021/12/15 13:16:37;;;;;;;39.37;19.80;;;8.60;99.90;;;;;;5002731;28;20455;-69
2021/12/15 13:19:14;;;;;;;41.70;21.70;;;8.50;99.90;;;;;;5003663;28;20466;-69
2021/12/15 13:21:54;;;;;;;39.40;21.20;;;8.50;99.90;;;;;;5009597;28;20473;-69
2021/12/15 13:30:36;;;;;;;40.60;22.13;;;8.40;99.90;;;;;;5013488;28;20451;-69
2021/12/15 13:33:10;;;;;;;40.63;20.97;;;8.40;99.90;;;;;;5000948;28;20520;-68
2021/12/15 13:35:47;;;;;;;45.37;22.27;;;8.40;99.90;;;;;;5002979;28;20464;-69
2021/12/15 13:38:21;;;;;;;40.27;20.87;;;8.30;99.90;;;;;;5003506;28;20508;-69
2021/12/15 13:41:10;;;;;;;46.63;23.57;;;8.20;99.90;;;;;;5004227;28;20561;-69
2021/12/15 13:43:57;;;;;;;42.80;21.80;;;8.20;99.90;;;;;;5004695;28;20506;-68
2021/12/15 13:46:32;;;;;;;46.37;22.47;;;8.10;99.90;;;;;;5000309;28;20511;-69
2021/12/15 13:49:04;;;;;;;45.63;21.87;;;8.00;99.90;;;;;;5011511;28;20445;-69
2021/12/15 13:52:17;;;;;;;41.03;21.40;;;8.00;99.90;;;;;;5012284;28;20536;-69
2021/12/15 13:55:13;;;;;;;38.60;19.93;;;8.00;99.90;;;;;;4918648;29;20843;-69
2021/12/15 13:57:49;;;;;;;50.17;20.30;;;8.00;99.90;;;;;;5003782;28;20455;-69
2021/12/15 14:00:21;;;;;;;45.17;22.20;;;7.90;99.90;;;;;;4999644;28;20457;-70
2021/12/15 14:03:01;;;;;;;40.63;20.93;;;7.90;99.90;;;;;;5012421;28;20493;-69
2021/12/15 14:05:31;;;;;;;48.67;23.00;;;7.90;99.90;;;;;;5000667;28;20450;-69